Terminal Aerodrome Forecast
Issued by NWS Grand Forks, ND

Home | Current Version | Previous Version | Graphics & Text | Print | Product List | Glossary On
Versions: 1 2 3 4 5 6 7 8 9 10 11 12 13 14 15 16 17 18 19 20
794
FTUS43 KFGF 161723 AAD
TAFFAR
TAF AMD
KFAR 161723Z 1617/1718 13004KT 5SM -RA BR OVC008
      TEMPO 1618/1620 2SM -RA BR OVC005
     FM162000 03004KT P6SM OVC010
      TEMPO 1620/1623 4SM -SHRA BR OVC006
     FM170000 36007KT P6SM VCSH OVC010
     FM170300 36006KT P6SM BKN010
     FM170800 35007KT P6SM SCT015=

USA.gov is the U.S. government's official web portal to all federal, state and local government web resources and services.